sensor_id;sensor_type;location;lat;lon;timestamp;P1;durP1;ratioP1;P2;durP2;ratioP2
69912;SDS011;57198;52.082;5.108;2023-03-23T00:01:55;7.05;;;4.15;;
69912;SDS011;57198;52.082;5.108;2023-03-23T00:04:21;4.57;;;3.53;;
69912;SDS011;57198;52.082;5.108;2023-03-23T00:06:49;4.47;;;3.67;;
69912;SDS011;57198;52.082;5.108;2023-03-23T00:09:16;6.40;;;3.50;;
69912;SDS011;57198;52.082;5.108;2023-03-23T00:11:42;4.93;;;3.90;;
69912;SDS011;57198;52.082;5.108;2023-03-23T00:14:09;7.78;;;4.53;;
69912;SDS011;57198;52.082;5.108;2023-03-23T00:16:39;5.85;;;3.92;;
69912;SDS011;57198;52.082;5.108;2023-03-23T00:19:07;5.10;;;3.70;;
69912;SDS011;57198;52.082;5.108;2023-03-23T00:21:34;5.13;;;3.93;;
69912;SDS011;57198;52.082;5.108;2023-03-23T00:24:14;3.65;;;3.08;;
69912;SDS011;57198;52.082;5.108;2023-03-23T00:26:41;3.85;;;3.20;;
69912;SDS011;57198;52.082;5.108;2023-03-23T00:29:11;7.47;;;3.80;;
69912;SDS011;57198;52.082;5.108;2023-03-23T00:31:41;9.50;;;4.18;;
69912;SDS011;57198;52.082;5.108;2023-03-23T00:34:12;4.77;;;3.50;;
69912;SDS011;57198;52.082;5.108;2023-03-23T00:36:44;5.65;;;3.45;;
69912;SDS011;57198;52.082;5.108;2023-03-23T00:39:11;6.00;;;3.22;;
69912;SDS011;57198;52.082;5.108;2023-03-23T00:41:38;6.63;;;3.58;;
69912;SDS011;57198;52.082;5.108;2023-03-23T00:44:05;5.47;;;3.47;;
69912;SDS011;57198;52.082;5.108;2023-03-23T00:46:33;5.03;;;3.23;;
69912;SDS011;57198;52.082;5.108;2023-03-23T00:49:11;4.38;;;2.90;;
69912;SDS011;57198;52.082;5.108;2023-03-23T00:51:37;3.83;;;3.17;;
69912;SDS011;57198;52.082;5.108;2023-03-23T00:54:04;3.67;;;2.90;;
69912;SDS011;57198;52.082;5.108;2023-03-23T00:56:30;4.45;;;3.88;;
69912;SDS011;57198;52.082;5.108;2023-03-23T00:58:56;4.83;;;2.53;;
69912;SDS011;57198;52.082;5.108;2023-03-23T01:01:22;3.95;;;3.00;;
69912;SDS011;57198;52.082;5.108;2023-03-23T01:03:49;4.60;;;3.67;;
69912;SDS011;57198;52.082;5.108;2023-03-23T01:06:15;3.53;;;2.88;;
69912;SDS011;57198;52.082;5.108;2023-03-23T01:08:42;6.03;;;3.13;;
69912;SDS011;57198;52.082;5.108;2023-03-23T01:11:15;5.37;;;2.90;;
69912;SDS011;57198;52.082;5.108;2023-03-23T01:13:42;5.85;;;3.10;;
69912;SDS011;57198;52.082;5.108;2023-03-23T01:16:08;5.88;;;3.42;;
69912;SDS011;57198;52.082;5.108;2023-03-23T01:18:35;6.10;;;3.33;;
69912;SDS011;57198;52.082;5.108;2023-03-23T01:21:09;3.97;;;2.90;;
69912;SDS011;57198;52.082;5.108;2023-03-23T01:23:36;3.67;;;2.67;;
69912;SDS011;57198;52.082;5.108;2023-03-23T01:26:08;3.95;;;2.75;;
69912;SDS011;57198;52.082;5.108;2023-03-23T01:28:35;4.07;;;3.40;;
69912;SDS011;57198;52.082;5.108;2023-03-23T01:31:07;4.13;;;3.00;;
69912;SDS011;57198;52.082;5.108;2023-03-23T01:33:35;3.47;;;2.92;;
69912;SDS011;57198;52.082;5.108;2023-03-23T01:36:02;4.83;;;2.77;;
69912;SDS011;57198;52.082;5.108;2023-03-23T01:38:29;3.55;;;2.65;;
69912;SDS011;57198;52.082;5.108;2023-03-23T01:40:56;3.35;;;2.72;;
69912;SDS011;57198;52.082;5.108;2023-03-23T01:43:22;3.40;;;2.58;;
69912;SDS011;57198;52.082;5.108;2023-03-23T01:45:48;4.32;;;3.20;;
69912;SDS011;57198;52.082;5.108;2023-03-23T01:48:17;3.07;;;2.10;;
69912;SDS011;57198;52.082;5.108;2023-03-23T01:53:14;3.40;;;2.53;;
69912;SDS011;57198;52.082;5.108;2023-03-23T01:55:42;4.07;;;2.95;;
69912;SDS011;57198;52.082;5.108;2023-03-23T01:58:09;3.35;;;3.03;;
69912;SDS011;57198;52.082;5.108;2023-03-23T02:00:37;7.03;;;2.27;;
69912;SDS011;57198;52.082;5.108;2023-03-23T02:03:05;4.20;;;2.83;;
69912;SDS011;57198;52.082;5.108;2023-03-23T02:05:36;4.28;;;2.88;;
69912;SDS011;57198;52.082;5.108;2023-03-23T02:08:10;2.97;;;2.20;;
69912;SDS011;57198;52.082;5.108;2023-03-23T02:10:38;3.17;;;2.90;;
69912;SDS011;57198;52.082;5.108;2023-03-23T02:13:06;5.17;;;2.73;;
69912;SDS011;57198;52.082;5.108;2023-03-23T02:15:39;3.45;;;2.55;;
69912;SDS011;57198;52.082;5.108;2023-03-23T02:33:37;5.05;;;2.55;;
69912;SDS011;57198;52.082;5.108;2023-03-23T02:36:07;2.97;;;2.47;;
69912;SDS011;57198;52.082;5.108;2023-03-23T02:38:51;2.53;;;2.33;;
69912;SDS011;57198;52.082;5.108;2023-03-23T02:41:19;4.50;;;2.83;;
69912;SDS011;57198;52.082;5.108;2023-03-23T02:43:47;2.92;;;2.42;;
69912;SDS011;57198;52.082;5.108;2023-03-23T02:46:16;6.43;;;2.97;;
69912;SDS011;57198;52.082;5.108;2023-03-23T02:48:43;4.25;;;3.40;;
69912;SDS011;57198;52.082;5.108;2023-03-23T02:51:10;4.20;;;2.67;;
69912;SDS011;57198;52.082;5.108;2023-03-23T02:53:39;2.33;;;1.95;;
69912;SDS011;57198;52.082;5.108;2023-03-23T02:56:06;4.78;;;2.50;;
69912;SDS011;57198;52.082;5.108;2023-03-23T02:58:33;3.17;;;2.50;;
69912;SDS011;57198;52.082;5.108;2023-03-23T03:01:13;3.33;;;2.60;;
69912;SDS011;57198;52.082;5.108;2023-03-23T03:03:40;4.10;;;2.10;;
69912;SDS011;57198;52.082;5.108;2023-03-23T03:08:44;2.83;;;2.40;;
69912;SDS011;57198;52.082;5.108;2023-03-23T03:11:13;4.28;;;2.13;;
69912;SDS011;57198;52.082;5.108;2023-03-23T03:18:47;4.28;;;2.38;;
69912;SDS011;57198;52.082;5.108;2023-03-23T03:21:14;4.50;;;2.20;;
69912;SDS011;57198;52.082;5.108;2023-03-23T03:23:44;4.40;;;2.17;;
69912;SDS011;57198;52.082;5.108;2023-03-23T03:26:11;5.03;;;2.08;;
69912;SDS011;57198;52.082;5.108;2023-03-23T03:28:49;3.37;;;1.90;;
69912;SDS011;57198;52.082;5.108;2023-03-23T03:31:19;4.13;;;2.00;;
69912;SDS011;57198;52.082;5.108;2023-03-23T03:33:46;8.07;;;2.20;;
69912;SDS011;57198;52.082;5.108;2023-03-23T03:36:20;3.17;;;1.80;;
69912;SDS011;57198;52.082;5.108;2023-03-23T03:38:48;2.53;;;1.90;;
69912;SDS011;57198;52.082;5.108;2023-03-23T03:41:16;6.93;;;2.33;;
69912;SDS011;57198;52.082;5.108;2023-03-23T03:43:42;5.43;;;2.70;;
69912;SDS011;57198;52.082;5.108;2023-03-23T03:46:09;3.97;;;2.08;;
69912;SDS011;57198;52.082;5.108;2023-03-23T03:48:37;3.85;;;1.98;;
69912;SDS011;57198;52.082;5.108;2023-03-23T03:51:04;2.50;;;2.10;;
69912;SDS011;57198;52.082;5.108;2023-03-23T03:53:34;7.03;;;2.23;;
69912;SDS011;57198;52.082;5.108;2023-03-23T03:56:01;5.75;;;1.70;;
69912;SDS011;57198;52.082;5.108;2023-03-23T03:58:35;3.42;;;2.08;;
69912;SDS011;57198;52.082;5.108;2023-03-23T04:01:03;2.40;;;2.20;;
69912;SDS011;57198;52.082;5.108;2023-03-23T04:03:34;3.75;;;2.15;;
69912;SDS011;57198;52.082;5.108;2023-03-23T04:06:21;2.77;;;1.43;;
69912;SDS011;57198;52.082;5.108;2023-03-23T04:08:47;4.97;;;1.80;;
69912;SDS011;57198;52.082;5.108;2023-03-23T04:11:14;4.63;;;1.95;;
69912;SDS011;57198;52.082;5.108;2023-03-23T04:13:41;4.18;;;1.70;;
69912;SDS011;57198;52.082;5.108;2023-03-23T04:16:21;2.80;;;1.80;;
69912;SDS011;57198;52.082;5.108;2023-03-23T04:18:48;5.63;;;1.73;;
69912;SDS011;57198;52.082;5.108;2023-03-23T04:21:16;4.95;;;2.13;;
69912;SDS011;57198;52.082;5.108;2023-03-23T04:23:45;3.72;;;2.00;;
69912;SDS011;57198;52.082;5.108;2023-03-23T04:26:11;3.88;;;1.50;;
69912;SDS011;57198;52.082;5.108;2023-03-23T04:28:42;3.35;;;1.63;;
69912;SDS011;57198;52.082;5.108;2023-03-23T04:31:27;2.73;;;1.43;;
69912;SDS011;57198;52.082;5.108;2023-03-23T04:34:05;4.35;;;1.45;;
69912;SDS011;57198;52.082;5.108;2023-03-23T04:36:38;1.88;;;1.50;;
69912;SDS011;57198;52.082;5.108;2023-03-23T04:39:12;3.53;;;1.90;;
69912;SDS011;57198;52.082;5.108;2023-03-23T04:41:39;6.45;;;2.03;;
69912;SDS011;57198;52.082;5.108;2023-03-23T04:44:43;3.90;;;1.77;;
69912;SDS011;57198;52.082;5.108;2023-03-23T04:47:22;3.45;;;2.03;;
69912;SDS011;57198;52.082;5.108;2023-03-23T04:49:55;4.32;;;2.10;;
69912;SDS011;57198;52.082;5.108;2023-03-23T04:52:29;5.45;;;1.75;;
69912;SDS011;57198;52.082;5.108;2023-03-23T04:54:56;7.97;;;1.98;;
69912;SDS011;57198;52.082;5.108;2023-03-23T04:57:24;7.17;;;2.30;;
69912;SDS011;57198;52.082;5.108;2023-03-23T05:00:12;4.15;;;2.00;;
69912;SDS011;57198;52.082;5.108;2023-03-23T05:02:46;6.85;;;2.22;;
69912;SDS011;57198;52.082;5.108;2023-03-23T05:05:17;8.57;;;1.98;;
69912;SDS011;57198;52.082;5.108;2023-03-23T05:07:44;8.18;;;2.30;;
69912;SDS011;57198;52.082;5.108;2023-03-23T05:10:13;9.90;;;2.47;;
69912;SDS011;57198;52.082;5.108;2023-03-23T05:12:41;12.00;;;2.63;;
69912;SDS011;57198;52.082;5.108;2023-03-23T05:15:10;9.82;;;2.83;;
69912;SDS011;57198;52.082;5.108;2023-03-23T05:17:37;10.23;;;2.92;;
69912;SDS011;57198;52.082;5.108;2023-03-23T05:20:12;5.10;;;2.10;;
69912;SDS011;57198;52.082;5.108;2023-03-23T05:22:42;12.13;;;2.87;;
69912;SDS011;57198;52.082;5.108;2023-03-23T05:25:11;9.98;;;2.38;;
69912;SDS011;57198;52.082;5.108;2023-03-23T05:27:42;10.38;;;3.13;;
69912;SDS011;57198;52.082;5.108;2023-03-23T05:30:21;8.15;;;2.33;;
69912;SDS011;57198;52.082;5.108;2023-03-23T05:32:48;6.78;;;2.15;;
69912;SDS011;57198;52.082;5.108;2023-03-23T05:35:44;4.97;;;2.07;;
69912;SDS011;57198;52.082;5.108;2023-03-23T05:38:13;8.60;;;2.13;;
69912;SDS011;57198;52.082;5.108;2023-03-23T05:40:40;6.57;;;1.98;;
69912;SDS011;57198;52.082;5.108;2023-03-23T05:43:13;7.60;;;2.28;;
69912;SDS011;57198;52.082;5.108;2023-03-23T05:46:11;6.45;;;2.65;;
69912;SDS011;57198;52.082;5.108;2023-03-23T05:48:39;6.93;;;2.57;;
69912;SDS011;57198;52.082;5.108;2023-03-23T05:51:10;9.32;;;2.88;;
69912;SDS011;57198;52.082;5.108;2023-03-23T05:53:41;11.20;;;3.20;;
69912;SDS011;57198;52.082;5.108;2023-03-23T05:56:08;8.35;;;2.85;;
69912;SDS011;57198;52.082;5.108;2023-03-23T05:58:55;7.93;;;2.60;;
69912;SDS011;57198;52.082;5.108;2023-03-23T06:01:22;9.47;;;3.23;;
69912;SDS011;57198;52.082;5.108;2023-03-23T06:03:49;6.43;;;2.72;;
69912;SDS011;57198;52.082;5.108;2023-03-23T06:06:25;3.78;;;1.75;;
69912;SDS011;57198;52.082;5.108;2023-03-23T06:09:01;5.68;;;1.90;;
69912;SDS011;57198;52.082;5.108;2023-03-23T06:11:40;5.90;;;2.25;;
69912;SDS011;57198;52.082;5.108;2023-03-23T06:14:25;9.30;;;2.27;;
69912;SDS011;57198;52.082;5.108;2023-03-23T06:16:52;7.53;;;3.15;;
69912;SDS011;57198;52.082;5.108;2023-03-23T06:19:18;7.38;;;3.03;;
69912;SDS011;57198;52.082;5.108;2023-03-23T06:21:54;10.32;;;3.72;;
69912;SDS011;57198;52.082;5.108;2023-03-23T06:24:39;11.60;;;3.47;;
69912;SDS011;57198;52.082;5.108;2023-03-23T06:27:05;8.93;;;3.33;;
69912;SDS011;57198;52.082;5.108;2023-03-23T06:29:33;6.35;;;2.63;;
69912;SDS011;57198;52.082;5.108;2023-03-23T06:32:00;9.82;;;3.25;;
69912;SDS011;57198;52.082;5.108;2023-03-23T06:34:28;8.13;;;2.85;;
69912;SDS011;57198;52.082;5.108;2023-03-23T06:36:58;8.55;;;3.72;;
69912;SDS011;57198;52.082;5.108;2023-03-23T06:39:44;6.20;;;1.90;;
69912;SDS011;57198;52.082;5.108;2023-03-23T06:42:19;7.15;;;2.83;;
69912;SDS011;57198;52.082;5.108;2023-03-23T06:44:52;6.07;;;2.60;;
69912;SDS011;57198;52.082;5.108;2023-03-23T06:47:22;10.00;;;2.78;;
69912;SDS011;57198;52.082;5.108;2023-03-23T06:49:49;10.60;;;3.00;;
69912;SDS011;57198;52.082;5.108;2023-03-23T06:52:23;9.70;;;2.97;;
69912;SDS011;57198;52.082;5.108;2023-03-23T06:54:50;7.75;;;2.50;;
69912;SDS011;57198;52.082;5.108;2023-03-23T06:57:18;9.02;;;3.38;;
69912;SDS011;57198;52.082;5.108;2023-03-23T06:59:47;9.35;;;2.70;;
69912;SDS011;57198;52.082;5.108;2023-03-23T07:02:13;6.60;;;3.28;;
69912;SDS011;57198;52.082;5.108;2023-03-23T07:04:42;6.43;;;2.13;;
69912;SDS011;57198;52.082;5.108;2023-03-23T07:07:14;12.50;;;3.17;;
69912;SDS011;57198;52.082;5.108;2023-03-23T07:10:04;7.82;;;2.65;;
69912;SDS011;57198;52.082;5.108;2023-03-23T07:12:30;11.75;;;3.00;;
69912;SDS011;57198;52.082;5.108;2023-03-23T07:14:58;12.25;;;3.95;;
69912;SDS011;57198;52.082;5.108;2023-03-23T07:17:25;12.83;;;3.13;;
69912;SDS011;57198;52.082;5.108;2023-03-23T07:20:04;10.90;;;3.33;;
69912;SDS011;57198;52.082;5.108;2023-03-23T07:22:32;10.60;;;3.13;;
69912;SDS011;57198;52.082;5.108;2023-03-23T07:25:06;12.15;;;2.80;;
69912;SDS011;57198;52.082;5.108;2023-03-23T07:27:48;10.65;;;2.95;;
69912;SDS011;57198;52.082;5.108;2023-03-23T07:30:15;8.90;;;2.53;;
69912;SDS011;57198;52.082;5.108;2023-03-23T07:32:42;11.30;;;2.60;;
69912;SDS011;57198;52.082;5.108;2023-03-23T07:35:09;9.80;;;2.72;;
69912;SDS011;57198;52.082;5.108;2023-03-23T07:37:47;6.45;;;2.42;;
69912;SDS011;57198;52.082;5.108;2023-03-23T07:40:15;12.25;;;3.13;;
69912;SDS011;57198;52.082;5.108;2023-03-23T07:42:46;6.67;;;2.33;;
69912;SDS011;57198;52.082;5.108;2023-03-23T07:45:34;7.22;;;2.10;;
69912;SDS011;57198;52.082;5.108;2023-03-23T07:48:01;6.43;;;2.97;;
69912;SDS011;57198;52.082;5.108;2023-03-23T07:50:28;10.60;;;3.10;;
69912;SDS011;57198;52.082;5.108;2023-03-23T07:52:56;11.52;;;2.83;;
69912;SDS011;57198;52.082;5.108;2023-03-23T07:55:25;7.50;;;2.40;;
69912;SDS011;57198;52.082;5.108;2023-03-23T07:58:12;6.38;;;2.30;;
69912;SDS011;57198;52.082;5.108;2023-03-23T08:00:45;4.82;;;2.67;;
69912;SDS011;57198;52.082;5.108;2023-03-23T08:03:14;4.68;;;2.38;;
69912;SDS011;57198;52.082;5.108;2023-03-23T08:06:07;7.72;;;2.42;;
69912;SDS011;57198;52.082;5.108;2023-03-23T08:08:54;6.20;;;2.43;;
69912;SDS011;57198;52.082;5.108;2023-03-23T08:11:39;5.05;;;2.38;;
69912;SDS011;57198;52.082;5.108;2023-03-23T08:14:24;6.70;;;2.80;;
69912;SDS011;57198;52.082;5.108;2023-03-23T08:17:12;6.95;;;3.05;;
69912;SDS011;57198;52.082;5.108;2023-03-23T08:20:05;4.63;;;2.58;;
69912;SDS011;57198;52.082;5.108;2023-03-23T08:22:55;7.57;;;2.77;;
69912;SDS011;57198;52.082;5.108;2023-03-23T08:25:42;5.97;;;2.33;;
69912;SDS011;57198;52.082;5.108;2023-03-23T08:28:14;6.32;;;2.80;;
69912;SDS011;57198;52.082;5.108;2023-03-23T08:31:05;6.82;;;2.47;;
69912;SDS011;57198;52.082;5.108;2023-03-23T08:33:41;4.82;;;2.47;;
69912;SDS011;57198;52.082;5.108;2023-03-23T08:36:19;7.80;;;3.10;;
69912;SDS011;57198;52.082;5.108;2023-03-23T08:38:54;7.35;;;2.47;;
69912;SDS011;57198;52.082;5.108;2023-03-23T08:41:40;6.35;;;2.95;;
69912;SDS011;57198;52.082;5.108;2023-03-23T08:44:22;9.93;;;4.13;;
69912;SDS011;57198;52.082;5.108;2023-03-23T08:47:12;9.35;;;3.00;;
69912;SDS011;57198;52.082;5.108;2023-03-23T08:50:15;5.93;;;2.30;;
69912;SDS011;57198;52.082;5.108;2023-03-23T08:53:00;7.35;;;3.00;;
69912;SDS011;57198;52.082;5.108;2023-03-23T08:55:32;8.60;;;2.63;;
69912;SDS011;57198;52.082;5.108;2023-03-23T08:58:17;5.22;;;2.08;;
69912;SDS011;57198;52.082;5.108;2023-03-23T09:00:46;7.05;;;2.08;;
69912;SDS011;57198;52.082;5.108;2023-03-23T09:03:33;8.73;;;2.70;;
69912;SDS011;57198;52.082;5.108;2023-03-23T09:06:18;8.70;;;2.10;;
69912;SDS011;57198;52.082;5.108;2023-03-23T09:08:44;6.50;;;3.22;;
69912;SDS011;57198;52.082;5.108;2023-03-23T09:11:11;9.02;;;2.72;;
69912;SDS011;57198;52.082;5.108;2023-03-23T09:13:37;6.97;;;2.97;;
69912;SDS011;57198;52.082;5.108;2023-03-23T09:16:04;8.00;;;2.40;;
69912;SDS011;57198;52.082;5.108;2023-03-23T09:18:31;10.52;;;2.80;;
69912;SDS011;57198;52.082;5.108;2023-03-23T09:20:57;8.30;;;2.30;;
69912;SDS011;57198;52.082;5.108;2023-03-23T09:23:24;10.32;;;2.42;;
69912;SDS011;57198;52.082;5.108;2023-03-23T09:25:50;9.13;;;3.25;;
69912;SDS011;57198;52.082;5.108;2023-03-23T09:28:17;8.30;;;2.60;;
69912;SDS011;57198;52.082;5.108;2023-03-23T09:30:43;6.13;;;1.95;;
69912;SDS011;57198;52.082;5.108;2023-03-23T09:33:11;8.55;;;2.42;;
69912;SDS011;57198;52.082;5.108;2023-03-23T09:35:37;8.75;;;2.50;;
69912;SDS011;57198;52.082;5.108;2023-03-23T09:38:04;7.47;;;2.67;;
69912;SDS011;57198;52.082;5.108;2023-03-23T09:50:32;8.68;;;2.47;;
69912;SDS011;57198;52.082;5.108;2023-03-23T09:53:10;7.57;;;2.77;;
69912;SDS011;57198;52.082;5.108;2023-03-23T09:55:39;10.95;;;2.13;;
69912;SDS011;57198;52.082;5.108;2023-03-23T09:58:12;12.32;;;3.03;;
69912;SDS011;57198;52.082;5.108;2023-03-23T10:01:02;7.57;;;2.28;;
69912;SDS011;57198;52.082;5.108;2023-03-23T10:03:39;7.65;;;2.00;;
69912;SDS011;57198;52.082;5.108;2023-03-23T10:06:10;8.50;;;2.67;;
69912;SDS011;57198;52.082;5.108;2023-03-23T10:08:38;5.78;;;2.20;;
69912;SDS011;57198;52.082;5.108;2023-03-23T10:16:27;6.15;;;2.25;;
69912;SDS011;57198;52.082;5.108;2023-03-23T10:21:22;7.70;;;2.88;;
69912;SDS011;57198;52.082;5.108;2023-03-23T10:26:48;7.32;;;2.03;;
69912;SDS011;57198;52.082;5.108;2023-03-23T10:29:19;8.68;;;1.95;;
69912;SDS011;57198;52.082;5.108;2023-03-23T10:32:00;6.80;;;2.10;;
69912;SDS011;57198;52.082;5.108;2023-03-23T10:34:45;9.43;;;1.90;;
69912;SDS011;57198;52.082;5.108;2023-03-23T10:37:17;8.45;;;2.45;;
69912;SDS011;57198;52.082;5.108;2023-03-23T10:39:46;9.10;;;2.75;;
69912;SDS011;57198;52.082;5.108;2023-03-23T10:44:53;12.50;;;2.17;;
69912;SDS011;57198;52.082;5.108;2023-03-23T10:47:21;8.63;;;2.33;;
69912;SDS011;57198;52.082;5.108;2023-03-23T10:49:49;9.05;;;2.78;;
69912;SDS011;57198;52.082;5.108;2023-03-23T10:55:03;9.95;;;2.40;;
69912;SDS011;57198;52.082;5.108;2023-03-23T10:57:31;8.00;;;2.90;;
69912;SDS011;57198;52.082;5.108;2023-03-23T11:00:01;8.15;;;2.80;;
69912;SDS011;57198;52.082;5.108;2023-03-23T11:02:31;7.43;;;2.65;;
69912;SDS011;57198;52.082;5.108;2023-03-23T11:05:02;6.82;;;2.20;;
69912;SDS011;57198;52.082;5.108;2023-03-23T11:07:31;7.95;;;1.98;;
69912;SDS011;57198;52.082;5.108;2023-03-23T11:10:05;8.83;;;2.13;;
69912;SDS011;57198;52.082;5.108;2023-03-23T11:12:34;8.88;;;2.65;;
69912;SDS011;57198;52.082;5.108;2023-03-23T11:15:09;9.38;;;3.00;;
69912;SDS011;57198;52.082;5.108;2023-03-23T11:17:41;9.20;;;2.78;;
69912;SDS011;57198;52.082;5.108;2023-03-23T11:20:11;6.95;;;2.88;;
69912;SDS011;57198;52.082;5.108;2023-03-23T11:22:37;8.13;;;2.93;;
69912;SDS011;57198;52.082;5.108;2023-03-23T11:25:04;9.30;;;2.60;;
69912;SDS011;57198;52.082;5.108;2023-03-23T11:27:32;5.85;;;1.90;;
69912;SDS011;57198;52.082;5.108;2023-03-23T11:30:09;6.82;;;2.20;;
69912;SDS011;57198;52.082;5.108;2023-03-23T11:32:36;6.40;;;1.73;;
69912;SDS011;57198;52.082;5.108;2023-03-23T11:35:03;7.17;;;2.10;;
69912;SDS011;57198;52.082;5.108;2023-03-23T11:37:40;7.25;;;1.80;;
69912;SDS011;57198;52.082;5.108;2023-03-23T11:45:13;10.07;;;2.10;;
69912;SDS011;57198;52.082;5.108;2023-03-23T11:47:41;9.47;;;2.20;;
69912;SDS011;57198;52.082;5.108;2023-03-23T11:50:17;11.75;;;2.53;;
69912;SDS011;57198;52.082;5.108;2023-03-23T11:53:08;11.55;;;2.63;;
69912;SDS011;57198;52.082;5.108;2023-03-23T11:55:50;8.65;;;2.10;;
69912;SDS011;57198;52.082;5.108;2023-03-23T11:58:19;8.48;;;2.17;;
69912;SDS011;57198;52.082;5.108;2023-03-23T12:00:51;10.37;;;2.17;;
69912;SDS011;57198;52.082;5.108;2023-03-23T12:06:06;9.32;;;2.72;;
69912;SDS011;57198;52.082;5.108;2023-03-23T12:11:18;8.68;;;2.10;;
69912;SDS011;57198;52.082;5.108;2023-03-23T12:16:21;7.57;;;2.50;;
69912;SDS011;57198;52.082;5.108;2023-03-23T12:18:58;9.43;;;2.47;;
69912;SDS011;57198;52.082;5.108;2023-03-23T12:21:36;8.95;;;1.90;;
69912;SDS011;57198;52.082;5.108;2023-03-23T12:24:14;7.97;;;2.00;;
69912;SDS011;57198;52.082;5.108;2023-03-23T12:29:36;10.18;;;2.30;;
69912;SDS011;57198;52.082;5.108;2023-03-23T12:32:28;6.78;;;1.77;;
69912;SDS011;57198;52.082;5.108;2023-03-23T12:47:56;6.95;;;2.38;;
69912;SDS011;57198;52.082;5.108;2023-03-23T12:50:28;10.32;;;1.65;;
69912;SDS011;57198;52.082;5.108;2023-03-23T12:53:02;9.97;;;2.17;;
69912;SDS011;57198;52.082;5.108;2023-03-23T12:55:38;8.02;;;2.30;;
69912;SDS011;57198;52.082;5.108;2023-03-23T12:58:29;6.03;;;1.80;;
69912;SDS011;57198;52.082;5.108;2023-03-23T13:00:55;6.43;;;1.88;;
69912;SDS011;57198;52.082;5.108;2023-03-23T13:11:19;10.88;;;3.33;;
69912;SDS011;57198;52.082;5.108;2023-03-23T13:13:48;5.20;;;2.20;;
69912;SDS011;57198;52.082;5.108;2023-03-23T13:24:01;5.65;;;1.90;;
69912;SDS011;57198;52.082;5.108;2023-03-23T13:26:29;7.47;;;2.13;;
69912;SDS011;57198;52.082;5.108;2023-03-23T13:29:00;5.70;;;2.00;;
69912;SDS011;57198;52.082;5.108;2023-03-23T13:31:28;5.67;;;1.87;;
69912;SDS011;57198;52.082;5.108;2023-03-23T13:34:02;10.10;;;2.03;;
69912;SDS011;57198;52.082;5.108;2023-03-23T13:36:30;4.13;;;1.65;;
69912;SDS011;57198;52.082;5.108;2023-03-23T13:38:57;9.10;;;2.22;;
69912;SDS011;57198;52.082;5.108;2023-03-23T13:41:24;5.95;;;2.05;;
69912;SDS011;57198;52.082;5.108;2023-03-23T13:43:53;7.80;;;1.90;;
69912;SDS011;57198;52.082;5.108;2023-03-23T13:46:30;5.55;;;1.73;;
69912;SDS011;57198;52.082;5.108;2023-03-23T13:49:17;7.18;;;2.15;;
69912;SDS011;57198;52.082;5.108;2023-03-23T13:56:52;8.07;;;1.77;;
69912;SDS011;57198;52.082;5.108;2023-03-23T14:01:53;6.40;;;2.10;;
69912;SDS011;57198;52.082;5.108;2023-03-23T14:04:41;11.73;;;2.80;;
69912;SDS011;57198;52.082;5.108;2023-03-23T14:07:15;5.05;;;2.50;;
69912;SDS011;57198;52.082;5.108;2023-03-23T14:09:44;5.77;;;2.73;;
69912;SDS011;57198;52.082;5.108;2023-03-23T14:12:21;10.02;;;2.22;;
69912;SDS011;57198;52.082;5.108;2023-03-23T14:14:58;7.13;;;2.65;;
69912;SDS011;57198;52.082;5.108;2023-03-23T14:17:31;8.45;;;3.00;;
69912;SDS011;57198;52.082;5.108;2023-03-23T14:20:04;5.97;;;2.40;;
69912;SDS011;57198;52.082;5.108;2023-03-23T14:22:38;5.63;;;2.37;;
69912;SDS011;57198;52.082;5.108;2023-03-23T14:25:15;6.18;;;2.45;;
69912;SDS011;57198;52.082;5.108;2023-03-23T14:27:44;7.38;;;2.38;;
69912;SDS011;57198;52.082;5.108;2023-03-23T14:30:15;9.20;;;2.35;;
69912;SDS011;57198;52.082;5.108;2023-03-23T14:32:42;7.82;;;2.55;;
69912;SDS011;57198;52.082;5.108;2023-03-23T14:37:48;10.73;;;2.55;;
69912;SDS011;57198;52.082;5.108;2023-03-23T14:40:16;8.48;;;2.10;;
69912;SDS011;57198;52.082;5.108;2023-03-23T14:42:43;9.38;;;2.83;;
69912;SDS011;57198;52.082;5.108;2023-03-23T14:45:12;6.07;;;2.30;;
69912;SDS011;57198;52.082;5.108;2023-03-23T14:47:44;7.53;;;1.90;;
69912;SDS011;57198;52.082;5.108;2023-03-23T14:50:22;9.35;;;2.55;;
69912;SDS011;57198;52.082;5.108;2023-03-23T14:52:50;8.45;;;2.33;;
69912;SDS011;57198;52.082;5.108;2023-03-23T14:57:43;5.15;;;1.83;;
69912;SDS011;57198;52.082;5.108;2023-03-23T15:00:13;6.07;;;2.00;;
69912;SDS011;57198;52.082;5.108;2023-03-23T15:02:41;4.65;;;2.50;;
69912;SDS011;57198;52.082;5.108;2023-03-23T15:05:11;8.48;;;2.22;;
69912;SDS011;57198;52.082;5.108;2023-03-23T15:07:40;4.97;;;1.52;;
69912;SDS011;57198;52.082;5.108;2023-03-23T15:10:07;10.15;;;2.40;;
69912;SDS011;57198;52.082;5.108;2023-03-23T15:12:45;9.70;;;2.10;;
69912;SDS011;57198;52.082;5.108;2023-03-23T15:15:24;12.18;;;2.17;;
69912;SDS011;57198;52.082;5.108;2023-03-23T15:17:51;7.72;;;2.03;;
69912;SDS011;57198;52.082;5.108;2023-03-23T15:23:15;7.22;;;2.53;;
69912;SDS011;57198;52.082;5.108;2023-03-23T15:25:54;10.23;;;2.30;;
69912;SDS011;57198;52.082;5.108;2023-03-23T15:28:30;6.75;;;2.38;;
69912;SDS011;57198;52.082;5.108;2023-03-23T15:31:04;7.57;;;2.40;;
69912;SDS011;57198;52.082;5.108;2023-03-23T15:33:38;8.07;;;2.85;;
69912;SDS011;57198;52.082;5.108;2023-03-23T15:36:06;9.55;;;2.42;;
69912;SDS011;57198;52.082;5.108;2023-03-23T15:38:48;10.30;;;2.43;;
69912;SDS011;57198;52.082;5.108;2023-03-23T15:41:25;7.93;;;2.13;;
69912;SDS011;57198;52.082;5.108;2023-03-23T15:43:56;10.65;;;2.20;;
69912;SDS011;57198;52.082;5.108;2023-03-23T15:46:27;10.07;;;2.40;;
69912;SDS011;57198;52.082;5.108;2023-03-23T15:49:04;8.40;;;2.38;;
69912;SDS011;57198;52.082;5.108;2023-03-23T15:51:33;7.90;;;2.07;;
69912;SDS011;57198;52.082;5.108;2023-03-23T15:54:00;6.78;;;1.98;;
69912;SDS011;57198;52.082;5.108;2023-03-23T15:56:27;8.60;;;2.60;;
69912;SDS011;57198;52.082;5.108;2023-03-23T15:58:57;8.32;;;2.47;;
69912;SDS011;57198;52.082;5.108;2023-03-23T16:01:28;10.32;;;2.85;;
69912;SDS011;57198;52.082;5.108;2023-03-23T16:06:38;8.57;;;2.65;;
69912;SDS011;57198;52.082;5.108;2023-03-23T16:09:15;8.52;;;2.58;;
69912;SDS011;57198;52.082;5.108;2023-03-23T16:11:51;11.02;;;2.65;;
69912;SDS011;57198;52.082;5.108;2023-03-23T16:14:30;10.80;;;2.90;;
69912;SDS011;57198;52.082;5.108;2023-03-23T16:16:58;8.97;;;2.53;;
69912;SDS011;57198;52.082;5.108;2023-03-23T16:19:25;13.20;;;2.78;;
69912;SDS011;57198;52.082;5.108;2023-03-23T16:21:53;7.22;;;2.47;;
69912;SDS011;57198;52.082;5.108;2023-03-23T16:24:20;9.57;;;2.83;;
69912;SDS011;57198;52.082;5.108;2023-03-23T16:26:47;12.80;;;2.33;;
69912;SDS011;57198;52.082;5.108;2023-03-23T16:29:15;11.73;;;2.40;;
69912;SDS011;57198;52.082;5.108;2023-03-23T16:32:03;8.90;;;2.40;;
69912;SDS011;57198;52.082;5.108;2023-03-23T16:34:30;11.30;;;2.50;;
69912;SDS011;57198;52.082;5.108;2023-03-23T16:36:59;8.43;;;2.33;;
69912;SDS011;57198;52.082;5.108;2023-03-23T16:39:27;7.25;;;2.60;;
69912;SDS011;57198;52.082;5.108;2023-03-23T16:41:54;11.73;;;2.23;;
69912;SDS011;57198;52.082;5.108;2023-03-23T16:44:21;10.95;;;2.50;;
69912;SDS011;57198;52.082;5.108;2023-03-23T16:46:48;8.02;;;2.53;;
69912;SDS011;57198;52.082;5.108;2023-03-23T16:49:16;13.05;;;3.28;;
69912;SDS011;57198;52.082;5.108;2023-03-23T16:51:43;9.05;;;2.75;;
69912;SDS011;57198;52.082;5.108;2023-03-23T16:54:10;9.67;;;3.30;;
69912;SDS011;57198;52.082;5.108;2023-03-23T16:56:38;9.55;;;2.60;;
69912;SDS011;57198;52.082;5.108;2023-03-23T16:59:05;5.72;;;2.63;;
69912;SDS011;57198;52.082;5.108;2023-03-23T17:01:32;9.48;;;2.75;;
69912;SDS011;57198;52.082;5.108;2023-03-23T17:04:00;9.98;;;2.63;;
69912;SDS011;57198;52.082;5.108;2023-03-23T17:06:27;9.33;;;2.10;;
69912;SDS011;57198;52.082;5.108;2023-03-23T17:08:55;10.15;;;2.80;;